Terminal Aerodrome Forecast
Issued by NWS Corpus Christi, TX

Home | Current Version | Previous Version | Text Only | Print | Product List | Glossary On
Versions: 1 2 3 4 5 6 7 8 9 10 11 12 13 14 15 16 17 18 19 20 21 22
000
FTUS44 KCRP 231740
TAFCRP
TAF
KCRP 231740Z 2318/2418 03012KT P6SM SCT025 BKN250
      TEMPO 2319/2321 BKN025 OVC100
     FM232100 VRB05KT P6SM VCTS BKN025CB
      TEMPO 2400/2403 VRB20G40KT 5SM -TSRA OVC025CB
     FM240300 36015G20KT P6SM BKN030
     FM240700 36012KT P6SM BKN050 OVC150
     FM241200 36007KT P6SM SCT200=

USA.gov is the U.S. government's official web portal to all federal, state and local government web resources and services.